Friday, November 17, 2017, 7:35 PM GMT
Back to Local

CYMX, Montreal / Mirabel

Location: , , Canada Lat: 45.683
Local Time: 7:35 PM GMT (19:35 GMT) Lon: -74.033
Time Zone: GMT Elev: 269 ft

Show me the last for .
Show Decoded

2017-11-17 19:00 METAR CYMX 171900Z 26008KT 240V300 45SM FEW030 FEW240 M01/M10 A3007 RMK SC1CI1
                 SLP188 =
2017-11-17 18:00 METAR CYMX 171800Z 27009G17KT 240V320 45SM FEW034 M01/M10 A3006 RMK SC2 SLP183 =
2017-11-17 17:00 METAR CYMX 171700Z 27008G18KT 230V300 45SM FEW027 M01/M09 A3005 RMK SC2 SLP182 =
2017-11-17 16:00 METAR CYMX 171600Z 31009G17KT 260V330 45SM SCT031 M02/M10 A3008 RMK SC3 SLP191 =
2017-11-17 15:00 METAR CYMX 171500Z 28006KT 250V310 45SM SCT027 M02/M08 A3008 RMK SC4 SLP192 =
2017-11-17 14:00 METAR CYMX 171400Z 29008G17KT 45SM BKN024 M03/M08 A3008 RMK SC7 SLP192 =
2017-11-17 13:00 METAR CYMX 171300Z 31008G19KT 240V330 45SM BKN024 BKN035 M03/M07 A3007 RMK
                 SC5SC2 SLP187 =
2017-11-17 12:00 METAR CYMX 171200Z 27005G15KT 230V330 35SM BKN024 OVC035 M03/M06 A3003 RMK
                 SC5SC3 SLP175 =
2017-11-17 11:00 METAR CYMX 171100Z 28006G15KT 240V340 25SM FEW029 BKN035 M02/M07 A2999 RMK
                 SC2SC5 SLP162 =
2017-11-17 10:00 METAR CYMX 171000Z 31012G19KT 280V340 25SM OVC025 M02/M06 A2996 RMK SC8 SLP151 =
2017-11-17 09:00 METAR CYMX 170900Z 28012G22KT 260V340 25SM OVC023 M01/M06 A2992 RMK SC8 SLP139 =
2017-11-17 08:00 METAR CYMX 170800Z 30009G18KT 270V330 25SM BKN023 BKN040 OVC075 M01/M05 A2989
                 RMK SC5SC2AC1 SLP126 =
2017-11-17 07:00 METAR CYMX 170700Z 31010G18KT 270V340 25SM SCT023 BKN040 OVC075 M00/M05 A2986
                 RMK SC4SC1AC3 SLP117 =
2017-11-17 06:00 METAR CYMX 170600Z 30010G18KT 250V340 25SM FEW025 BKN040 OVC070 00/M04 A2982 RMK
                 SC2SC3AC3 SLP102 =
2017-11-17 05:00 METAR CYMX 170500Z 30009G17KT 240V340 25SM FEW022 SCT035 BKN050 OVC075 01/M03
                 A2978 RMK SC2SC2SC2AC2 SLP090 =
2017-11-17 04:00 METAR CYMX 170400Z 30012G19KT 260V330 25SM FEW007 SCT018 BKN035 BKN050 OVC065
                 02/M02 A2974 RMK SF1SC2SC2SC2SC1 SLP077 =
2017-11-17 03:00 METAR CYMX 170300Z 29006KT 240V320 25SM FEW007 SCT018 BKN030 OVC045 03/01 A2972
                 RMK SF1SC2SC3SC2 SLP069 =
2017-11-17 02:50 METAR CYMX 170250Z 28005KT 230V340 25SM FEW007 SCT018 BKN030 OVC045 03/01 A2971
                 RMK SF1SC2SC3SC2 SLP066 =
2017-11-17 02:00 METAR CYMX 170200Z 28006KT 260V330 25SM -RA SCT007 BKN015 BKN030 OVC045 04/01
                 A2968 RMK SF3SC2SC1SC2 SLP056 =
2017-11-17 01:00 METAR CYMX 170100Z 24005KT 20SM -RA BKN005 OVC019 05/04 A2965 RMK SF7SC1 SLP045
                 =
2017-11-17 00:45 METAR CYMX 170045Z 24006KT 20SM -RA BKN007 OVC018 05/04 A2965 RMK SF6SC2 SLP045
                 =
2017-11-17 00:00 METAR CYMX 170000Z 23005KT 20SM -RA SCT014 BKN021 OVC080 05/04 A2964 RMK
                 SF3SC3AC2 SLP042 =
2017-11-16 23:00 METAR CYMX 162300Z 22007KT 10SM -RA BKN014 OVC021 05/04 A2964 RMK SF5SC3 SLP042
                 =
2017-11-16 22:00 METAR CYMX 162200Z 22005KT 10SM BKN013 OVC020 05/04 A2963 RMK SF5SC3 SLP039 =
2017-11-16 21:36 METAR CYMX 162136Z 23006KT 200V260 10SM -RA BKN012 OVC020 05/04 A2963 RMK SF5SC3
                 SLP040 =
2017-11-16 21:00 METAR CYMX 162100Z 23008KT 15SM -SHRA BKN018 OVC060 06/03 A2963 RMK SC6SC2 CVCTV
                 CLD EMBD SLP038 =
2017-11-16 20:00 METAR CYMX 162000Z CCA 23009G16KT 25SM -SHRA BKN033 OVC066 06/03 A2962 RMK
                 SC5AC3 CVCTV CLD EMBD SLP033 =

Support USWX by starting your Amazon purchase here.